Latest Weather Observations for Woomera

IDS60801

Issued at 4:21 am CDT Tuesday 21 January 2020 (issued every 10 minutes, with the page automatically refreshed every 10 minutes)

About weather observations | Map of weather stations | Latest weather observations for SA | Other Formats
Station Details ID: 016001 Name: WOOMERA AERODROME Lat: -31.16 Lon: 136.81 Height: 166.6 m
Data from the previous 72 hours. | See also: Recent months at Woomera
Date/Time
CDT
Temp
°C
App
Temp
°C
Dew
Point
°C
Rel
Hum
%
Delta-T
°C
Wind Press
QNH
hPa
Press
MSL
hPa
Rain since
9am
mm
Dir  Spd
km/h
Gust
km/h
Spd
kts
Gust
kts
21/04:00am 17.1 15.1 11.4 69 3.1 SSE 13 15 7 8 1011.6 1010.6 0.0
21/03:30am 17.6 15.6 11.4 67 3.4 SSE 13 17 7 9 1011.8 1010.8 0.0
21/03:00am 18.0 16.0 11.6 66 3.5 SE 13 17 7 9 1011.7 1010.7 0.0
21/02:30am 18.1 16.5 11.4 65 3.7 SSE 11 13 6 7 1011.7 1010.7 0.0
21/02:00am 18.6 15.5 11.7 64 3.8 SE 19 24 10 13 1011.8 1010.8 0.0
21/01:30am 19.0 15.1 10.8 59 4.5 SE 22 28 12 15 1011.8 1010.8 0.0
21/01:00am 19.6 16.0 10.0 54 5.2 SE 19 24 10 13 1012.1 1011.1 0.0
21/12:30am 19.9 16.2 10.0 53 5.4 SE 20 26 11 14 1012.5 1011.5 0.0
21/12:00am 20.4 15.3 10.5 53 5.4 SE 28 33 15 18 1012.5 1011.5 0.0
 
Date/Time
CDT
Temp
°C
App
Temp
°C
Dew
Point
°C
Rel
Hum
%
Delta-T
°C
Wind Press
QNH
hPa
Press
MSL
hPa
Rain since
9am
mm
Dir  Spd
km/h
Gust
km/h
Spd
kts
Gust
kts
20/11:30pm 20.7 15.3 10.8 53 5.5 ESE 30 37 16 20 1012.7 1011.7 0.0
20/11:00pm 21.3 15.5 10.8 51 5.8 ESE 32 39 17 21 1012.5 1011.5 0.0
20/10:30pm 22.0 16.6 10.8 49 6.2 ESE 30 35 16 19 1012.3 1011.3 0.0
20/10:00pm 23.2 17.4 9.6 42 7.4 SE 30 37 16 20 1011.7 1010.7 0.0
20/09:30pm 24.0 17.9 8.4 37 8.4 SE 30 39 16 21 1011.3 1010.3 0.0
20/09:00pm 25.1 20.0 7.7 33 9.3 SE 24 32 13 17 1011.0 1010.1 0.0
20/08:30pm 26.0 22.0 5.0 26 10.8 S 15 20 8 11 1010.7 1009.7 0.0
20/08:00pm 26.7 22.7 5.1 25 11.1 SSE 15 20 8 11 1010.5 1009.5 0.0
20/07:30pm 27.2 22.8 4.9 24 11.5 S 17 26 9 14 1010.2 1009.2 0.0
20/07:00pm 27.6 22.2 4.6 23 11.8 S 22 33 12 18 1010.0 1009.0 0.0
20/06:30pm 28.1 23.2 5.0 23 12.0 S 20 32 11 17 1009.7 1008.7 0.0
20/06:00pm 27.6 21.8 4.6 23 11.8 S 24 33 13 18 1009.8 1008.8 0.0
20/05:30pm 28.1 22.4 5.0 23 12.0 SSW 24 35 13 19 1010.0 1009.0 0.0
20/05:00pm 28.0 22.3 5.0 23 11.9 S 24 43 13 23 1009.8 1008.8 0.0
20/04:30pm 27.3 21.6 5.0 24 11.5 S 24 35 13 19 1010.1 1009.1 0.0
20/04:00pm 27.1 21.1 5.4 25 11.3 SW 26 37 14 20 1010.2 1009.2 0.0
20/03:30pm 27.4 21.2 4.5 23 11.7 SSW 26 41 14 22 1010.6 1009.6 0.0
20/03:00pm 26.6 21.0 5.5 26 10.9 SSW 24 39 13 21 1010.9 1010.0 0.0
20/02:30pm 26.1 21.0 6.2 28 10.4 SSW 22 37 12 20 1011.4 1010.4 0.0
20/02:00pm 26.0 21.0 6.6 29 10.2 SSW 22 35 12 19 1011.6 1010.6 0.0
20/01:30pm 24.7 18.9 6.4 31 9.5 S 26 39 14 21 1012.0 1011.0 0.0
20/01:00pm 24.0 18.7 6.7 33 9.0 S 24 35 13 19 1012.1 1011.1 0.0
20/12:30pm 24.1 18.4 6.8 33 9.0 SSW 26 35 14 19 1012.6 1011.6 0.0
20/12:00pm 22.7 16.6 6.5 35 8.3 S 28 39 15 21 1012.8 1011.8 0.0
20/11:30am 22.0 15.4 7.8 40 7.5 SSW 32 43 17 23 1012.8 1011.8 0.0
20/11:00am 21.5 14.9 7.7 41 7.2 SSW 32 43 17 23 1012.9 1011.9 0.0
20/10:30am 20.6 14.3 8.9 47 6.2 SSW 32 41 17 22 1012.9 1011.9 0.0
20/10:00am 19.1 13.0 9.6 54 5.1 SSW 32 41 17 22 1013.0 1012.0 0.0
20/09:30am 18.6 12.9 9.9 57 4.7 SSW 30 39 16 21 1013.2 1012.2 0.0
20/09:00am 17.6 12.9 10.5 63 3.8 SSW 26 32 14 17 1013.3 1012.3 0.0
20/08:30am 17.2 12.5 10.6 65 3.6 SSW 26 35 14 19 1013.2 1012.2 0.0
20/08:00am 16.4 11.2 10.3 67 3.3 SSW 28 33 15 18 1012.8 1011.8 0.0
20/07:30am 15.7 11.8 9.6 67 3.2 SW 20 26 11 14 1012.7 1011.7 0.0
20/07:00am 15.2 12.0 9.8 70 2.8 SSW 17 20 9 11 1012.7 1011.7 0.0
20/06:30am 15.2 11.5 9.6 69 2.9 SSW 19 24 10 13 1012.4 1011.4 0.0
20/06:00am 15.5 11.3 9.6 68 3.1 SSW 22 28 12 15 1012.2 1011.2 0.0
20/05:30am 15.8 11.5 9.5 66 3.3 SSW 22 26 12 14 1011.8 1010.8 0.0
20/05:00am 16.0 12.0 9.0 63 3.6 SSW 20 26 11 14 1011.9 1010.9 0.0
20/04:30am 16.2 12.2 8.4 60 4.0 SSW 19 24 10 13 1011.7 1010.7 0.0
20/04:00am 16.6 12.6 8.3 58 4.3 SSW 19 26 10 14 1011.7 1010.7 0.0
20/03:30am 16.7 12.7 8.4 58 4.3 S 19 28 10 15 1011.8 1010.8 0.0
20/03:00am 17.1 13.2 8.5 57 4.4 S 19 26 10 14 1011.8 1010.8 0.0
20/02:30am 17.6 12.5 7.6 52 5.1 S 24 33 13 18 1011.9 1010.9 0.0
20/02:00am 18.0 12.8 7.4 50 5.4 S 24 32 13 17 1011.8 1010.8 0.0
20/01:30am 18.6 12.7 7.4 48 5.7 S 28 37 15 20 1011.8 1010.8 0.0
20/01:00am 19.2 12.7 8.2 49 5.7 S 32 43 17 23 1011.7 1010.7 0.0
20/12:30am 19.6 13.1 8.3 48 5.9 S 32 41 17 22 1011.5 1010.5 0.0
20/12:00am 20.0 14.5 9.0 49 5.8 SSE 28 39 15 21 1011.3 1010.3 0.0
 
Date/Time
CDT
Temp
°C
App
Temp
°C
Dew
Point
°C
Rel
Hum
%
Delta-T
°C
Wind Press
QNH
hPa
Press
MSL
hPa
Rain since
9am
mm
Dir  Spd
km/h
Gust
km/h
Spd
kts
Gust
kts
19/11:30pm 20.6 14.9 8.3 45 6.5 S 28 35 15 19 1011.2 1010.2 0.0
19/11:00pm 21.3 15.7 8.9 45 6.6 SSE 28 41 15 22 1010.8 1009.8 0.0
19/10:30pm 21.9 15.6 8.8 43 7.0 S 32 43 17 23 1010.5 1009.5 0.0
19/10:00pm 22.4 16.1 8.9 42 7.3 S 32 43 17 23 1010.2 1009.2 0.0
19/09:30pm 23.3 16.9 8.6 39 7.9 S 32 43 17 23 1009.8 1008.8 0.0
19/09:00pm 23.8 18.2 8.6 38 8.2 SSE 28 37 15 20 1009.2 1008.2 0.0
19/08:30pm 25.3 17.8 3.3 24 10.9 SW 32 39 17 21 1008.7 1007.7 0.0
19/08:00pm 25.9 17.8 3.2 23 11.2 SW 35 46 19 25 1008.5 1007.5 0.0
19/07:30pm 26.4 18.7 3.6 23 11.4 SW 33 50 18 27 1008.2 1007.2 0.0
19/07:26pm 26.5 19.4 3.7 23 11.4 SW 30 50 16 27 1008.1 1007.1 0.0
19/07:00pm 26.9 20.5 5.2 25 11.2 SSW 28 39 15 21 1007.8 1006.8 0.0
19/06:30pm 27.4 20.6 5.1 24 11.6 SW 30 43 16 23 1007.6 1006.6 0.0
19/06:00pm 27.6 20.9 5.8 25 11.4 S 30 41 16 22 1007.7 1006.7 0.0
19/05:38pm 27.2 20.6 6.0 26 11.1 S 30 52 16 28 1007.6 1006.6 0.0
19/05:30pm 27.0 20.4 5.9 26 11.1 SSW 30 46 16 25 1007.6 1006.6 0.0
19/05:11pm 27.0 20.5 6.4 27 10.9 S 30 48 16 26 1007.7 1006.7 0.0
19/05:00pm 26.6 20.4 6.1 27 10.7 SSW 28 43 15 23 1007.7 1006.7 0.0
19/04:45pm 26.8 20.5 5.7 26 11.0 SSW 28 52 15 28 1007.8 1006.8 0.0
19/04:30pm 27.3 20.3 6.1 26 11.2 S 32 44 17 24 1007.9 1006.9 0.0
19/04:00pm 26.2 19.1 6.3 28 10.4 SSW 33 48 18 26 1008.1 1007.1 0.0
19/03:30pm 26.3 19.2 6.4 28 10.5 SSW 33 50 18 27 1008.2 1007.2 0.0
19/03:27pm 26.4 19.4 5.9 27 10.7 SSW 32 50 17 27 1008.3 1007.3 0.0
19/03:00pm 27.3 21.1 7.7 29 10.6 SSW 30 41 16 22 1008.5 1007.5 0.0
19/02:30pm 25.0 18.4 7.6 33 9.3 SSW 32 48 17 26 1008.7 1007.7 0.0
19/02:12pm 24.9 18.4 8.0 34 9.1 SSW 32 46 17 25 1008.8 1007.8 0.0
19/02:00pm 24.8 17.9 7.4 33 9.2 SSW 33 46 18 25 1008.8 1007.8 0.0
19/01:33pm 24.9 18.5 8.4 35 8.9 SSW 32 50 17 27 1009.1 1008.1 0.0
19/01:30pm 24.0 18.0 8.8 38 8.2 SSW 30 41 16 22 1009.0 1008.0 0.0
19/01:00pm 23.7 17.5 9.3 40 7.8 SSW 32 52 17 28 1009.4 1008.4 0.0
19/12:56pm 24.0 18.2 9.6 40 7.9 SSW 30 52 16 28 1009.4 1008.4 0.0
19/12:30pm 22.7 17.0 9.8 44 7.1 SSW 30 43 16 23 1009.6 1008.6 0.0
19/12:08pm 23.0 17.8 10.1 44 7.1 SSW 28 48 15 26 1009.6 1008.6 0.0
19/12:00pm 23.1 17.9 10.2 44 7.1 SSW 28 39 15 21 1009.7 1008.7 0.0
19/11:30am 22.1 16.6 10.6 48 6.4 SSW 30 43 16 23 1009.9 1008.9 0.0
19/11:00am 20.5 14.9 11.4 56 5.1 SSW 32 37 17 20 1009.9 1008.9 0.0
19/10:30am 20.4 14.8 11.6 57 4.9 SSW 32 43 17 23 1010.1 1009.1 0.0
19/10:00am 20.0 14.5 12.0 60 4.5 SSW 32 43 17 23 1010.2 1009.2 0.0
19/09:30am 19.2 13.6 12.0 63 4.0 SSW 33 44 18 24 1010.2 1009.2 0.0
19/09:00am 18.6 13.6 12.1 66 3.6 SSW 30 37 16 20 1010.2 1009.2 0.0
19/08:30am 18.1 13.0 11.9 67 3.4 SSW 30 35 16 19 1009.9 1008.9 0.0
19/08:00am 17.9 13.1 11.7 67 3.4 SSW 28 39 15 21 1009.6 1008.6 0.0
19/07:30am 17.6 13.3 11.9 69 3.2 SSW 26 33 14 18 1009.2 1008.2 0.0
19/07:00am 17.1 12.4 12.0 72 2.8 SSW 28 35 15 19 1008.8 1007.8 0.0
19/06:30am 17.1 12.3 11.8 71 2.9 SSW 28 41 15 22 1008.7 1007.7 0.0
19/06:00am 17.4 12.5 11.4 68 3.3 SSW 28 39 15 21 1008.4 1007.4 0.0
19/05:30am 17.6 12.3 11.2 66 3.5 S 30 39 16 21 1008.0 1007.0 0.0
19/05:00am 17.9 13.3 11.0 64 3.8 S 26 33 14 18 1007.8 1006.8 0.0
19/04:30am 18.3 14.0 10.7 61 4.1 S 24 33 13 18 1007.4 1006.4 0.0
19/04:00am 18.7 14.3 10.3 58 4.5 S 24 33 13 18 1007.2 1006.2 0.0
19/03:30am 19.5 15.4 10.0 54 5.1 S 22 33 12 18 1007.2 1006.2 0.0
19/03:00am 20.1 15.6 9.9 52 5.5 S 24 30 13 16 1007.2 1006.2 0.0
19/02:30am 20.4 16.0 10.5 53 5.4 S 24 33 13 18 1007.2 1006.2 0.0
19/02:00am 20.7 16.0 10.5 52 5.6 S 26 33 14 18 1007.3 1006.3 0.0
19/01:30am 21.4 16.4 10.9 51 5.8 S 28 35 15 19 1007.3 1006.3 0.0
19/01:00am 23.1 20.0 8.8 40 7.7 SSW 15 24 8 13 1007.4 1006.4 0.0
19/12:30am 24.1 19.8 6.8 33 9.1 SW 19 26 10 14 1007.3 1006.3 0.0
19/12:00am 24.5 22.2 4.8 28 10.0 WSW 6 7 3 4 1007.2 1006.2 0.0
 
Date/Time
CDT
Temp
°C
App
Temp
°C
Dew
Point
°C
Rel
Hum
%
Delta-T
°C
Wind Press
QNH
hPa
Press
MSL
hPa
Rain since
9am
mm
Dir  Spd
km/h
Gust
km/h
Spd
kts
Gust
kts
18/11:30pm 25.1 22.6 4.8 27 10.3 SW 7 7 4 4 1007.2 1006.2 0.0
18/11:00pm 25.4 22.9 4.5 26 10.6 SW 7 9 4 5 1007.3 1006.3 0.0
18/10:30pm 25.7 23.2 4.8 26 10.7 SSW 7 9 4 5 1007.4 1006.4 0.0
18/10:00pm 26.3 22.6 4.7 25 11.0 SSW 13 15 7 8 1007.4 1006.4 0.0
18/09:30pm 26.9 22.1 2.7 21 12.0 S 17 20 9 11 1007.3 1006.3 0.0
18/09:00pm 27.5 22.5 1.1 18 12.8 S 17 26 9 14 1007.1 1006.1 0.0
18/08:30pm 27.7 23.4 3.4 21 12.3 SSW 15 19 8 10 1006.9 1005.9 0.0
18/08:00pm 28.1 23.5 3.7 21 12.4 SSW 17 24 9 13 1006.6 1005.6 0.0
18/07:30pm 28.3 23.3 4.6 22 12.2 SSW 20 28 11 15 1006.3 1005.3 0.0
18/07:00pm 29.0 23.3 5.1 22 12.5 SSW 24 30 13 16 1006.1 1005.1 0.0
18/06:30pm 29.7 24.7 4.4 20 13.1 SSW 20 30 11 16 1006.1 1005.1 0.0
18/06:00pm 29.5 25.5 4.9 21 12.9 S 15 22 8 12 1006.0 1005.0 0.0
18/05:30pm 30.1 27.5 4.0 19 13.5 W 7 15 4 8 1006.2 1005.2 0.0
18/05:00pm 29.5 24.9 3.5 19 13.2 SW 17 28 9 15 1006.5 1005.5 0.0
18/04:30pm 29.2 24.8 4.6 21 12.8 WSW 17 26 9 14 1006.8 1005.8 0.0
18/04:00pm 28.7 24.6 4.2 21 12.6 W 15 22 8 12 1006.9 1005.9 0.0
18/03:30pm 28.5 24.1 4.7 22 12.3 WSW 17 22 9 12 1007.1 1006.1 0.0
18/03:00pm 28.7 24.8 3.5 20 12.8 SSW 13 24 7 13 1007.3 1006.3 0.0
18/02:30pm 28.4 24.2 4.0 21 12.5 SW 15 28 8 15 1007.5 1006.5 0.0
18/02:00pm 28.9 25.7 6.9 25 11.8 S 13 20 7 11 1007.9 1006.9 0.0
18/01:30pm 28.3 24.9 5.8 24 11.9 NW 13 41 7 22 1008.6 1007.6 0.0
18/01:00pm 26.9 24.1 5.2 25 11.2 WSW 9 15 5 8 1009.0 1008.0 0.0
18/12:30pm 26.4 23.7 5.4 26 10.9 S 9 13 5 7 1009.4 1008.4 0.0
18/12:00pm 25.5 22.8 5.7 28 10.2 ENE 9 17 5 9 1009.3 1008.3 0.0
18/11:30am 24.7 22.5 6.4 31 9.5 SE 7 13 4 7 1009.7 1008.7 0.0
18/11:00am 24.1 21.8 5.9 31 9.4 ESE 7 11 4 6 1010.2 1009.2 0.0
18/10:30am 23.0 20.3 7.5 37 8.2 SE 11 15 6 8 1010.2 1009.2 0.0
18/10:00am 21.5 19.1 8.7 44 6.8 SE 11 17 6 9 1010.3 1009.3 0.0
18/09:30am 20.6 17.0 9.8 50 5.8 SE 19 24 10 13 1010.2 1009.2 0.0
18/09:00am 19.5 15.9 10.5 56 4.9 SE 20 24 11 13 1010.1 1009.1 0.0
18/08:30am 18.7 14.7 10.5 59 4.5 SE 22 26 12 14 1009.9 1008.9 0.0
18/08:00am 18.0 14.1 10.9 63 3.9 SE 22 30 12 16 1009.7 1008.7 0.0
18/07:30am 16.7 13.1 10.5 67 3.3 SSE 20 24 11 13 1009.6 1008.6 0.0
18/07:00am 16.6 12.7 10.7 68 3.2 SSE 22 28 12 15 1009.6 1008.6 0.0
18/06:30am 16.6 13.6 10.5 67 3.3 SSE 17 22 9 12 1009.5 1008.5 0.0
18/06:00am 16.8 13.4 10.4 66 3.4 SSE 19 26 10 14 1009.1 1008.1 0.0
18/05:30am 17.0 13.8 10.1 64 3.7 SSE 17 22 9 12 1009.0 1008.0 0.0
18/05:00am 17.1 14.2 9.5 61 4.0 S 15 20 8 11 1008.7 1007.7 0.0
18/04:30am 17.6 14.5 9.0 57 4.5 SSE 15 20 8 11 1008.7 1007.7 0.0

Other formats

Comma delimited format used in spreadsheet applications
http://www.bom.gov.au/fwo/IDS60801/IDS60801.94659.axf

JavaScript Object Notation format (JSON) in row-major order
http://www.bom.gov.au/fwo/IDS60801/IDS60801.94659.json

Data quality

Most of these data are generated automatically and are frequently updated. Quality checks on data are not normally performed. It is possible for incorrect values to appear. Refer to information at About Latest Weather Observations and please check the disclaimer before using these data.